sensor_id;sensor_type;location;lat;lon;timestamp;P1;durP1;ratioP1;P2;durP2;ratioP2
13743;SDS011;6943;52.368;9.966;2023-04-23T00:00:35;8.00;;;5.60;;
13743;SDS011;6943;52.368;9.966;2023-04-23T00:03:03;7.90;;;7.13;;
13743;SDS011;6943;52.368;9.966;2023-04-23T00:05:36;7.40;;;5.97;;
13743;SDS011;6943;52.368;9.966;2023-04-23T00:08:03;8.10;;;7.30;;
13743;SDS011;6943;52.368;9.966;2023-04-23T00:10:29;7.93;;;6.63;;
13743;SDS011;6943;52.368;9.966;2023-04-23T00:12:55;6.50;;;5.90;;
13743;SDS011;6943;52.368;9.966;2023-04-23T00:15:21;7.20;;;6.50;;
13743;SDS011;6943;52.368;9.966;2023-04-23T00:17:47;7.23;;;5.83;;
13743;SDS011;6943;52.368;9.966;2023-04-23T00:20:13;8.60;;;6.00;;
13743;SDS011;6943;52.368;9.966;2023-04-23T00:22:40;7.20;;;6.30;;
13743;SDS011;6943;52.368;9.966;2023-04-23T00:25:06;7.50;;;5.60;;
13743;SDS011;6943;52.368;9.966;2023-04-23T00:27:32;6.67;;;5.40;;
13743;SDS011;6943;52.368;9.966;2023-04-23T00:29:58;5.73;;;5.17;;
13743;SDS011;6943;52.368;9.966;2023-04-23T00:32:24;5.67;;;5.17;;
13743;SDS011;6943;52.368;9.966;2023-04-23T00:34:49;7.03;;;5.33;;
13743;SDS011;6943;52.368;9.966;2023-04-23T00:37:15;5.23;;;4.73;;
13743;SDS011;6943;52.368;9.966;2023-04-23T00:39:41;5.63;;;5.13;;
13743;SDS011;6943;52.368;9.966;2023-04-23T00:42:07;7.53;;;5.50;;
13743;SDS011;6943;52.368;9.966;2023-04-23T00:44:39;6.20;;;5.60;;
13743;SDS011;6943;52.368;9.966;2023-04-23T00:47:06;5.83;;;5.23;;
13743;SDS011;6943;52.368;9.966;2023-04-23T00:49:32;6.87;;;5.53;;
13743;SDS011;6943;52.368;9.966;2023-04-23T00:52:01;5.93;;;5.20;;
13743;SDS011;6943;52.368;9.966;2023-04-23T00:54:27;6.47;;;4.93;;
13743;SDS011;6943;52.368;9.966;2023-04-23T00:56:52;6.67;;;5.97;;
13743;SDS011;6943;52.368;9.966;2023-04-23T00:59:19;7.00;;;5.90;;
13743;SDS011;6943;52.368;9.966;2023-04-23T01:01:45;6.17;;;5.57;;
13743;SDS011;6943;52.368;9.966;2023-04-23T01:04:12;6.40;;;5.70;;
13743;SDS011;6943;52.368;9.966;2023-04-23T01:06:39;6.43;;;5.77;;
13743;SDS011;6943;52.368;9.966;2023-04-23T01:09:06;8.23;;;5.90;;
13743;SDS011;6943;52.368;9.966;2023-04-23T01:11:34;6.60;;;5.60;;
13743;SDS011;6943;52.368;9.966;2023-04-23T01:14:02;6.43;;;5.83;;
13743;SDS011;6943;52.368;9.966;2023-04-23T01:16:28;8.13;;;6.43;;
13743;SDS011;6943;52.368;9.966;2023-04-23T01:18:54;7.07;;;6.40;;
13743;SDS011;6943;52.368;9.966;2023-04-23T01:21:20;7.17;;;6.47;;
13743;SDS011;6943;52.368;9.966;2023-04-23T01:23:46;6.73;;;6.13;;
13743;SDS011;6943;52.368;9.966;2023-04-23T01:26:12;6.53;;;5.77;;
13743;SDS011;6943;52.368;9.966;2023-04-23T01:28:38;6.73;;;6.03;;
13743;SDS011;6943;52.368;9.966;2023-04-23T01:31:05;5.87;;;5.37;;
13743;SDS011;6943;52.368;9.966;2023-04-23T01:33:31;6.40;;;5.80;;
13743;SDS011;6943;52.368;9.966;2023-04-23T01:38:25;6.30;;;5.70;;
13743;SDS011;6943;52.368;9.966;2023-04-23T01:40:54;7.00;;;5.97;;
13743;SDS011;6943;52.368;9.966;2023-04-23T01:43:20;6.27;;;5.70;;
13743;SDS011;6943;52.368;9.966;2023-04-23T01:45:46;7.07;;;6.37;;
13743;SDS011;6943;52.368;9.966;2023-04-23T01:48:12;9.13;;;5.80;;
13743;SDS011;6943;52.368;9.966;2023-04-23T01:50:38;7.27;;;6.57;;
13743;SDS011;6943;52.368;9.966;2023-04-23T01:53:04;6.97;;;6.27;;
13743;SDS011;6943;52.368;9.966;2023-04-23T01:55:30;8.70;;;7.73;;
13743;SDS011;6943;52.368;9.966;2023-04-23T01:57:56;9.63;;;8.73;;
13743;SDS011;6943;52.368;9.966;2023-04-23T02:00:22;10.67;;;9.57;;
13743;SDS011;6943;52.368;9.966;2023-04-23T02:02:47;11.50;;;9.80;;
13743;SDS011;6943;52.368;9.966;2023-04-23T02:05:15;12.73;;;11.20;;
13743;SDS011;6943;52.368;9.966;2023-04-23T02:07:42;13.33;;;12.13;;
13743;SDS011;6943;52.368;9.966;2023-04-23T02:10:12;13.20;;;12.00;;
13743;SDS011;6943;52.368;9.966;2023-04-23T02:12:38;14.03;;;12.63;;
13743;SDS011;6943;52.368;9.966;2023-04-23T02:15:04;15.13;;;13.63;;
13743;SDS011;6943;52.368;9.966;2023-04-23T02:17:31;14.60;;;13.20;;
13743;SDS011;6943;52.368;9.966;2023-04-23T02:19:56;16.53;;;14.83;;
13743;SDS011;6943;52.368;9.966;2023-04-23T02:22:22;16.23;;;14.33;;
13743;SDS011;6943;52.368;9.966;2023-04-23T02:24:49;17.47;;;15.07;;
13743;SDS011;6943;52.368;9.966;2023-04-23T02:27:15;17.20;;;15.17;;
13743;SDS011;6943;52.368;9.966;2023-04-23T02:29:41;17.67;;;15.87;;
13743;SDS011;6943;52.368;9.966;2023-04-23T02:32:06;17.53;;;15.73;;
13743;SDS011;6943;52.368;9.966;2023-04-23T02:34:32;16.63;;;15.00;;
13743;SDS011;6943;52.368;9.966;2023-04-23T02:36:57;19.17;;;17.17;;
13743;SDS011;6943;52.368;9.966;2023-04-23T02:39:23;19.43;;;17.00;;
13743;SDS011;6943;52.368;9.966;2023-04-23T02:41:48;18.03;;;16.13;;
13743;SDS011;6943;52.368;9.966;2023-04-23T02:44:14;19.93;;;17.83;;
13743;SDS011;6943;52.368;9.966;2023-04-23T02:46:40;19.50;;;16.07;;
13743;SDS011;6943;52.368;9.966;2023-04-23T02:49:05;20.07;;;17.43;;
13743;SDS011;6943;52.368;9.966;2023-04-23T02:51:31;19.60;;;17.57;;
13743;SDS011;6943;52.368;9.966;2023-04-23T02:53:57;20.27;;;18.07;;
13743;SDS011;6943;52.368;9.966;2023-04-23T02:56:23;20.37;;;18.10;;
13743;SDS011;6943;52.368;9.966;2023-04-23T02:58:48;19.97;;;17.83;;
13743;SDS011;6943;52.368;9.966;2023-04-23T03:01:14;21.33;;;18.17;;
13743;SDS011;6943;52.368;9.966;2023-04-23T03:03:40;22.87;;;18.20;;
13743;SDS011;6943;52.368;9.966;2023-04-23T03:06:06;20.40;;;17.67;;
13743;SDS011;6943;52.368;9.966;2023-04-23T03:08:32;21.47;;;18.83;;
13743;SDS011;6943;52.368;9.966;2023-04-23T03:10:57;24.50;;;19.87;;
13743;SDS011;6943;52.368;9.966;2023-04-23T03:13:23;24.27;;;19.93;;
13743;SDS011;6943;52.368;9.966;2023-04-23T03:15:50;24.13;;;19.03;;
13743;SDS011;6943;52.368;9.966;2023-04-23T03:18:16;24.93;;;20.33;;
13743;SDS011;6943;52.368;9.966;2023-04-23T03:20:41;22.93;;;20.00;;
13743;SDS011;6943;52.368;9.966;2023-04-23T03:23:07;24.80;;;19.83;;
13743;SDS011;6943;52.368;9.966;2023-04-23T03:25:33;24.67;;;20.60;;
13743;SDS011;6943;52.368;9.966;2023-04-23T03:27:58;23.83;;;20.23;;
13743;SDS011;6943;52.368;9.966;2023-04-23T03:30:24;24.30;;;20.73;;
13743;SDS011;6943;52.368;9.966;2023-04-23T03:32:51;26.10;;;21.27;;
13743;SDS011;6943;52.368;9.966;2023-04-23T03:35:19;28.40;;;21.07;;
13743;SDS011;6943;52.368;9.966;2023-04-23T03:37:44;26.30;;;21.70;;
13743;SDS011;6943;52.368;9.966;2023-04-23T03:40:10;25.90;;;21.00;;
13743;SDS011;6943;52.368;9.966;2023-04-23T03:42:35;24.80;;;21.13;;
13743;SDS011;6943;52.368;9.966;2023-04-23T03:45:01;25.57;;;22.27;;
13743;SDS011;6943;52.368;9.966;2023-04-23T03:47:27;24.90;;;21.60;;
13743;SDS011;6943;52.368;9.966;2023-04-23T03:49:53;26.00;;;22.13;;
13743;SDS011;6943;52.368;9.966;2023-04-23T03:52:19;26.57;;;22.33;;
13743;SDS011;6943;52.368;9.966;2023-04-23T03:54:44;26.97;;;22.60;;
13743;SDS011;6943;52.368;9.966;2023-04-23T03:57:09;28.47;;;22.53;;
13743;SDS011;6943;52.368;9.966;2023-04-23T03:59:36;27.83;;;23.93;;
13743;SDS011;6943;52.368;9.966;2023-04-23T04:02:02;27.17;;;23.20;;
13743;SDS011;6943;52.368;9.966;2023-04-23T04:04:30;30.93;;;22.00;;
13743;SDS011;6943;52.368;9.966;2023-04-23T04:06:56;26.73;;;22.40;;
13743;SDS011;6943;52.368;9.966;2023-04-23T04:09:24;26.00;;;23.07;;
13743;SDS011;6943;52.368;9.966;2023-04-23T04:11:50;28.60;;;23.97;;
13743;SDS011;6943;52.368;9.966;2023-04-23T04:14:17;28.23;;;23.70;;
13743;SDS011;6943;52.368;9.966;2023-04-23T04:16:43;25.40;;;22.13;;
13743;SDS011;6943;52.368;9.966;2023-04-23T04:19:09;26.97;;;24.03;;
13743;SDS011;6943;52.368;9.966;2023-04-23T04:21:34;29.70;;;25.53;;
13743;SDS011;6943;52.368;9.966;2023-04-23T04:24:00;28.53;;;24.87;;
13743;SDS011;6943;52.368;9.966;2023-04-23T04:26:27;27.20;;;24.00;;
13743;SDS011;6943;52.368;9.966;2023-04-23T04:28:52;32.97;;;25.03;;
13743;SDS011;6943;52.368;9.966;2023-04-23T04:31:18;29.10;;;24.17;;
13743;SDS011;6943;52.368;9.966;2023-04-23T04:33:47;30.03;;;25.47;;
13743;SDS011;6943;52.368;9.966;2023-04-23T04:36:12;29.97;;;25.17;;
13743;SDS011;6943;52.368;9.966;2023-04-23T04:38:38;29.67;;;24.67;;
13743;SDS011;6943;52.368;9.966;2023-04-23T04:41:04;28.20;;;25.03;;
13743;SDS011;6943;52.368;9.966;2023-04-23T04:43:30;29.10;;;24.77;;
13743;SDS011;6943;52.368;9.966;2023-04-23T04:45:56;30.20;;;25.03;;
13743;SDS011;6943;52.368;9.966;2023-04-23T04:48:23;33.43;;;25.37;;
13743;SDS011;6943;52.368;9.966;2023-04-23T04:50:48;31.73;;;25.50;;
13743;SDS011;6943;52.368;9.966;2023-04-23T04:53:14;32.93;;;26.00;;
13743;SDS011;6943;52.368;9.966;2023-04-23T04:55:40;33.60;;;27.13;;
13743;SDS011;6943;52.368;9.966;2023-04-23T04:58:06;35.90;;;27.77;;
13743;SDS011;6943;52.368;9.966;2023-04-23T05:00:31;36.70;;;27.43;;
13743;SDS011;6943;52.368;9.966;2023-04-23T05:02:57;35.33;;;26.63;;
13743;SDS011;6943;52.368;9.966;2023-04-23T05:05:24;35.20;;;25.70;;
13743;SDS011;6943;52.368;9.966;2023-04-23T05:07:50;36.27;;;27.53;;
13743;SDS011;6943;52.368;9.966;2023-04-23T05:10:18;34.40;;;26.93;;
13743;SDS011;6943;52.368;9.966;2023-04-23T05:12:44;35.50;;;28.03;;
13743;SDS011;6943;52.368;9.966;2023-04-23T05:15:11;35.03;;;27.07;;
13743;SDS011;6943;52.368;9.966;2023-04-23T05:17:38;31.20;;;25.27;;
13743;SDS011;6943;52.368;9.966;2023-04-23T05:20:04;31.73;;;25.80;;
13743;SDS011;6943;52.368;9.966;2023-04-23T05:22:30;33.20;;;25.57;;
13743;SDS011;6943;52.368;9.966;2023-04-23T05:24:56;31.60;;;24.70;;
13743;SDS011;6943;52.368;9.966;2023-04-23T05:27:22;30.93;;;24.40;;
13743;SDS011;6943;52.368;9.966;2023-04-23T05:29:47;32.90;;;25.77;;
13743;SDS011;6943;52.368;9.966;2023-04-23T05:32:13;33.10;;;25.67;;
13743;SDS011;6943;52.368;9.966;2023-04-23T05:34:38;32.77;;;25.43;;
13743;SDS011;6943;52.368;9.966;2023-04-23T05:37:04;34.27;;;25.93;;
13743;SDS011;6943;52.368;9.966;2023-04-23T05:39:30;31.23;;;25.30;;
13743;SDS011;6943;52.368;9.966;2023-04-23T05:41:55;32.53;;;24.90;;
13743;SDS011;6943;52.368;9.966;2023-04-23T05:44:22;34.77;;;25.57;;
13743;SDS011;6943;52.368;9.966;2023-04-23T05:46:47;32.53;;;24.60;;
13743;SDS011;6943;52.368;9.966;2023-04-23T05:49:13;32.97;;;25.23;;
13743;SDS011;6943;52.368;9.966;2023-04-23T05:51:38;38.00;;;27.63;;
13743;SDS011;6943;52.368;9.966;2023-04-23T05:54:04;38.50;;;27.40;;
13743;SDS011;6943;52.368;9.966;2023-04-23T05:56:29;35.27;;;25.73;;
13743;SDS011;6943;52.368;9.966;2023-04-23T05:58:55;38.17;;;26.97;;
13743;SDS011;6943;52.368;9.966;2023-04-23T06:01:20;33.63;;;26.00;;
13743;SDS011;6943;52.368;9.966;2023-04-23T06:03:46;32.93;;;25.97;;
13743;SDS011;6943;52.368;9.966;2023-04-23T06:06:12;33.27;;;25.87;;
13743;SDS011;6943;52.368;9.966;2023-04-23T06:08:38;32.60;;;24.77;;
13743;SDS011;6943;52.368;9.966;2023-04-23T06:11:04;30.57;;;25.00;;
13743;SDS011;6943;52.368;9.966;2023-04-23T06:13:29;32.50;;;25.80;;
13743;SDS011;6943;52.368;9.966;2023-04-23T06:15:56;34.77;;;27.33;;
13743;SDS011;6943;52.368;9.966;2023-04-23T06:18:21;36.77;;;28.13;;
13743;SDS011;6943;52.368;9.966;2023-04-23T06:20:47;35.93;;;29.07;;
13743;SDS011;6943;52.368;9.966;2023-04-23T06:23:15;36.93;;;29.43;;
13743;SDS011;6943;52.368;9.966;2023-04-23T06:25:41;34.53;;;27.67;;
13743;SDS011;6943;52.368;9.966;2023-04-23T06:28:06;38.27;;;28.20;;
13743;SDS011;6943;52.368;9.966;2023-04-23T06:30:31;38.13;;;28.10;;
13743;SDS011;6943;52.368;9.966;2023-04-23T06:32:57;32.20;;;27.17;;
13743;SDS011;6943;52.368;9.966;2023-04-23T06:35:22;36.23;;;28.50;;
13743;SDS011;6943;52.368;9.966;2023-04-23T06:37:48;37.23;;;28.43;;
13743;SDS011;6943;52.368;9.966;2023-04-23T06:40:13;36.60;;;27.97;;
13743;SDS011;6943;52.368;9.966;2023-04-23T06:42:39;34.43;;;27.77;;
13743;SDS011;6943;52.368;9.966;2023-04-23T06:45:05;35.13;;;26.93;;
13743;SDS011;6943;52.368;9.966;2023-04-23T06:47:31;35.97;;;26.63;;
13743;SDS011;6943;52.368;9.966;2023-04-23T06:49:57;37.77;;;28.23;;
13743;SDS011;6943;52.368;9.966;2023-04-23T06:52:23;32.80;;;26.77;;
13743;SDS011;6943;52.368;9.966;2023-04-23T06:54:49;35.23;;;27.47;;
13743;SDS011;6943;52.368;9.966;2023-04-23T06:57:15;31.93;;;25.40;;
13743;SDS011;6943;52.368;9.966;2023-04-23T06:59:41;32.70;;;26.67;;
13743;SDS011;6943;52.368;9.966;2023-04-23T07:02:06;31.70;;;26.10;;
13743;SDS011;6943;52.368;9.966;2023-04-23T07:04:32;31.93;;;27.07;;
13743;SDS011;6943;52.368;9.966;2023-04-23T07:06:57;31.10;;;27.00;;
13743;SDS011;6943;52.368;9.966;2023-04-23T07:09:24;33.73;;;26.87;;
13743;SDS011;6943;52.368;9.966;2023-04-23T07:11:51;32.23;;;25.87;;
13743;SDS011;6943;52.368;9.966;2023-04-23T07:14:16;32.43;;;26.13;;
13743;SDS011;6943;52.368;9.966;2023-04-23T07:16:42;32.77;;;26.43;;
13743;SDS011;6943;52.368;9.966;2023-04-23T07:19:07;29.07;;;25.23;;
13743;SDS011;6943;52.368;9.966;2023-04-23T07:21:33;31.37;;;25.80;;
13743;SDS011;6943;52.368;9.966;2023-04-23T07:23:58;32.30;;;26.57;;
13743;SDS011;6943;52.368;9.966;2023-04-23T07:26:24;27.50;;;24.53;;
13743;SDS011;6943;52.368;9.966;2023-04-23T07:28:51;28.50;;;24.73;;
13743;SDS011;6943;52.368;9.966;2023-04-23T07:31:17;30.27;;;26.07;;
13743;SDS011;6943;52.368;9.966;2023-04-23T07:33:43;28.53;;;25.30;;
13743;SDS011;6943;52.368;9.966;2023-04-23T07:36:09;28.63;;;25.60;;
13743;SDS011;6943;52.368;9.966;2023-04-23T07:38:34;29.50;;;25.30;;
13743;SDS011;6943;52.368;9.966;2023-04-23T07:41:00;29.53;;;26.40;;
13743;SDS011;6943;52.368;9.966;2023-04-23T07:43:26;27.23;;;24.43;;
13743;SDS011;6943;52.368;9.966;2023-04-23T07:45:51;26.00;;;23.30;;
13743;SDS011;6943;52.368;9.966;2023-04-23T07:48:16;28.23;;;24.57;;
13743;SDS011;6943;52.368;9.966;2023-04-23T07:50:42;27.30;;;24.60;;
13743;SDS011;6943;52.368;9.966;2023-04-23T07:53:07;26.23;;;23.53;;
13743;SDS011;6943;52.368;9.966;2023-04-23T07:55:33;25.58;;;23.08;;
13743;SDS011;6943;52.368;9.966;2023-04-23T07:57:58;27.50;;;24.83;;
13743;SDS011;6943;52.368;9.966;2023-04-23T08:00:24;27.20;;;24.45;;
13743;SDS011;6943;52.368;9.966;2023-04-23T08:02:49;25.85;;;23.45;;
13743;SDS011;6943;52.368;9.966;2023-04-23T08:05:17;27.08;;;24.58;;
13743;SDS011;6943;52.368;9.966;2023-04-23T08:07:42;25.48;;;23.10;;
13743;SDS011;6943;52.368;9.966;2023-04-23T08:10:08;26.02;;;23.63;;
13743;SDS011;6943;52.368;9.966;2023-04-23T08:12:34;27.27;;;24.67;;
13743;SDS011;6943;52.368;9.966;2023-04-23T08:15:00;26.98;;;24.67;;
13743;SDS011;6943;52.368;9.966;2023-04-23T08:17:26;24.23;;;22.00;;
13743;SDS011;6943;52.368;9.966;2023-04-23T08:19:51;22.88;;;20.90;;
13743;SDS011;6943;52.368;9.966;2023-04-23T08:22:17;24.10;;;21.98;;
13743;SDS011;6943;52.368;9.966;2023-04-23T08:24:43;23.02;;;21.10;;
13743;SDS011;6943;52.368;9.966;2023-04-23T08:27:10;23.17;;;21.25;;
13743;SDS011;6943;52.368;9.966;2023-04-23T08:29:36;25.20;;;23.10;;
13743;SDS011;6943;52.368;9.966;2023-04-23T08:32:01;24.23;;;22.08;;
13743;SDS011;6943;52.368;9.966;2023-04-23T08:34:27;23.85;;;21.77;;
13743;SDS011;6943;52.368;9.966;2023-04-23T08:36:52;24.15;;;22.05;;
13743;SDS011;6943;52.368;9.966;2023-04-23T08:39:18;23.30;;;21.20;;
13743;SDS011;6943;52.368;9.966;2023-04-23T08:41:43;21.23;;;19.33;;
13743;SDS011;6943;52.368;9.966;2023-04-23T08:44:18;19.73;;;18.05;;
13743;SDS011;6943;52.368;9.966;2023-04-23T08:46:47;21.30;;;19.50;;
13743;SDS011;6943;52.368;9.966;2023-04-23T08:49:14;21.52;;;19.65;;
13743;SDS011;6943;52.368;9.966;2023-04-23T08:51:51;20.25;;;18.45;;
13743;SDS011;6943;52.368;9.966;2023-04-23T08:54:21;19.10;;;17.40;;
13743;SDS011;6943;52.368;9.966;2023-04-23T08:56:50;18.92;;;17.33;;
13743;SDS011;6943;52.368;9.966;2023-04-23T08:59:19;20.80;;;18.80;;
13743;SDS011;6943;52.368;9.966;2023-04-23T09:01:46;18.80;;;17.17;;
13743;SDS011;6943;52.368;9.966;2023-04-23T09:04:12;19.00;;;17.35;;
13743;SDS011;6943;52.368;9.966;2023-04-23T09:06:40;20.13;;;18.25;;
13743;SDS011;6943;52.368;9.966;2023-04-23T09:09:07;18.50;;;16.90;;
13743;SDS011;6943;52.368;9.966;2023-04-23T09:11:33;17.90;;;16.30;;
13743;SDS011;6943;52.368;9.966;2023-04-23T09:14:01;16.85;;;15.38;;
13743;SDS011;6943;52.368;9.966;2023-04-23T09:16:26;16.42;;;14.90;;
13743;SDS011;6943;52.368;9.966;2023-04-23T09:18:52;18.90;;;17.20;;
13743;SDS011;6943;52.368;9.966;2023-04-23T09:21:18;18.75;;;17.05;;
13743;SDS011;6943;52.368;9.966;2023-04-23T09:23:44;18.98;;;17.17;;
13743;SDS011;6943;52.368;9.966;2023-04-23T09:26:12;18.30;;;16.48;;
13743;SDS011;6943;52.368;9.966;2023-04-23T09:28:44;17.70;;;15.90;;
13743;SDS011;6943;52.368;9.966;2023-04-23T09:31:19;19.73;;;17.63;;
13743;SDS011;6943;52.368;9.966;2023-04-23T09:33:51;16.87;;;15.07;;
13743;SDS011;6943;52.368;9.966;2023-04-23T09:36:21;17.70;;;15.90;;
13743;SDS011;6943;52.368;9.966;2023-04-23T09:38:51;16.93;;;15.13;;
13743;SDS011;6943;52.368;9.966;2023-04-23T09:43:54;17.40;;;14.47;;
13743;SDS011;6943;52.368;9.966;2023-04-23T09:46:36;17.83;;;15.07;;
13743;SDS011;6943;52.368;9.966;2023-04-23T09:49:06;17.87;;;14.37;;
13743;SDS011;6943;52.368;9.966;2023-04-23T09:51:34;15.97;;;14.27;;
13743;SDS011;6943;52.368;9.966;2023-04-23T09:54:07;18.10;;;15.53;;
13743;SDS011;6943;52.368;9.966;2023-04-23T09:56:40;16.60;;;14.77;;
13743;SDS011;6943;52.368;9.966;2023-04-23T10:01:47;14.63;;;13.10;;
13743;SDS011;6943;52.368;9.966;2023-04-23T10:04:22;11.50;;;10.30;;
13743;SDS011;6943;52.368;9.966;2023-04-23T10:06:54;13.13;;;11.73;;
13743;SDS011;6943;52.368;9.966;2023-04-23T10:09:21;14.07;;;11.40;;
13743;SDS011;6943;52.368;9.966;2023-04-23T10:11:52;14.43;;;12.40;;
13743;SDS011;6943;52.368;9.966;2023-04-23T10:14:19;14.40;;;12.90;;
13743;SDS011;6943;52.368;9.966;2023-04-23T10:16:45;14.50;;;13.00;;
13743;SDS011;6943;52.368;9.966;2023-04-23T10:19:16;13.20;;;11.53;;
13743;SDS011;6943;52.368;9.966;2023-04-23T10:21:48;13.10;;;11.03;;
13743;SDS011;6943;52.368;9.966;2023-04-23T10:24:19;12.57;;;11.27;;
13743;SDS011;6943;52.368;9.966;2023-04-23T10:26:48;14.50;;;12.07;;
13743;SDS011;6943;52.368;9.966;2023-04-23T10:29:15;13.50;;;11.43;;
13743;SDS011;6943;52.368;9.966;2023-04-23T10:31:43;12.40;;;11.00;;
13743;SDS011;6943;52.368;9.966;2023-04-23T10:34:10;11.60;;;10.40;;
13743;SDS011;6943;52.368;9.966;2023-04-23T10:36:36;10.50;;;9.27;;
13743;SDS011;6943;52.368;9.966;2023-04-23T10:39:02;10.97;;;8.77;;
13743;SDS011;6943;52.368;9.966;2023-04-23T10:41:35;9.83;;;8.87;;
13743;SDS011;6943;52.368;9.966;2023-04-23T10:44:03;10.60;;;9.50;;
13743;SDS011;6943;52.368;9.966;2023-04-23T10:46:30;9.07;;;8.13;;
13743;SDS011;6943;52.368;9.966;2023-04-23T10:49:12;9.47;;;8.07;;
13743;SDS011;6943;52.368;9.966;2023-04-23T10:51:40;8.90;;;8.00;;
13743;SDS011;6943;52.368;9.966;2023-04-23T10:54:07;11.23;;;9.10;;
13743;SDS011;6943;52.368;9.966;2023-04-23T10:56:36;10.17;;;9.17;;
13743;SDS011;6943;52.368;9.966;2023-04-23T10:59:06;9.83;;;8.90;;
13743;SDS011;6943;52.368;9.966;2023-04-23T11:01:33;9.90;;;8.90;;
13743;SDS011;6943;52.368;9.966;2023-04-23T11:03:58;9.47;;;8.47;;
13743;SDS011;6943;52.368;9.966;2023-04-23T11:11:59;9.07;;;8.17;;
13743;SDS011;6943;52.368;9.966;2023-04-23T11:20:09;7.80;;;7.00;;
13743;SDS011;6943;52.368;9.966;2023-04-23T11:22:43;6.83;;;6.00;;
13743;SDS011;6943;52.368;9.966;2023-04-23T11:25:11;9.00;;;8.10;;
13743;SDS011;6943;52.368;9.966;2023-04-23T11:27:42;9.27;;;8.30;;
13743;SDS011;6943;52.368;9.966;2023-04-23T11:30:10;9.17;;;8.27;;
13743;SDS011;6943;52.368;9.966;2023-04-23T11:32:37;9.50;;;8.60;;
13743;SDS011;6943;52.368;9.966;2023-04-23T11:35:04;11.10;;;10.00;;
13743;SDS011;6943;52.368;9.966;2023-04-23T11:37:31;10.07;;;8.97;;
13743;SDS011;6943;52.368;9.966;2023-04-23T11:39:57;9.20;;;8.30;;
13743;SDS011;6943;52.368;9.966;2023-04-23T11:42:31;9.40;;;8.40;;
13743;SDS011;6943;52.368;9.966;2023-04-23T11:45:04;8.93;;;8.03;;
13743;SDS011;6943;52.368;9.966;2023-04-23T11:47:31;8.77;;;7.87;;
13743;SDS011;6943;52.368;9.966;2023-04-23T11:49:57;8.33;;;7.53;;
13743;SDS011;6943;52.368;9.966;2023-04-23T11:52:25;8.20;;;6.83;;
13743;SDS011;6943;52.368;9.966;2023-04-23T11:54:51;8.20;;;7.40;;
13743;SDS011;6943;52.368;9.966;2023-04-23T11:57:16;8.23;;;7.53;;
13743;SDS011;6943;52.368;9.966;2023-04-23T11:59:42;8.43;;;7.57;;
13743;SDS011;6943;52.368;9.966;2023-04-23T12:02:07;7.50;;;6.90;;
13743;SDS011;6943;52.368;9.966;2023-04-23T12:04:32;8.00;;;6.80;;
13743;SDS011;6943;52.368;9.966;2023-04-23T12:06:58;8.10;;;6.80;;
13743;SDS011;6943;52.368;9.966;2023-04-23T12:09:25;7.47;;;6.77;;
13743;SDS011;6943;52.368;9.966;2023-04-23T12:11:51;7.10;;;6.50;;
13743;SDS011;6943;52.368;9.966;2023-04-23T12:14:18;6.13;;;5.53;;
13743;SDS011;6943;52.368;9.966;2023-04-23T12:16:50;8.10;;;5.83;;
13743;SDS011;6943;52.368;9.966;2023-04-23T12:19:26;5.80;;;5.30;;
13743;SDS011;6943;52.368;9.966;2023-04-23T12:22:00;6.77;;;6.17;;
13743;SDS011;6943;52.368;9.966;2023-04-23T12:24:28;7.60;;;6.57;;
13743;SDS011;6943;52.368;9.966;2023-04-23T12:26:56;6.20;;;5.70;;
13743;SDS011;6943;52.368;9.966;2023-04-23T12:29:27;6.63;;;5.93;;
13743;SDS011;6943;52.368;9.966;2023-04-23T12:31:56;6.73;;;5.97;;
13743;SDS011;6943;52.368;9.966;2023-04-23T12:34:22;6.73;;;6.03;;
13743;SDS011;6943;52.368;9.966;2023-04-23T12:36:49;5.93;;;5.43;;
13743;SDS011;6943;52.368;9.966;2023-04-23T12:41:49;5.30;;;4.80;;
13743;SDS011;6943;52.368;9.966;2023-04-23T12:44:16;5.93;;;4.60;;
13743;SDS011;6943;52.368;9.966;2023-04-23T12:46:41;4.17;;;3.77;;
13743;SDS011;6943;52.368;9.966;2023-04-23T12:49:07;4.23;;;3.87;;
13743;SDS011;6943;52.368;9.966;2023-04-23T12:51:32;4.23;;;3.83;;
13743;SDS011;6943;52.368;9.966;2023-04-23T12:53:58;4.57;;;3.90;;
13743;SDS011;6943;52.368;9.966;2023-04-23T12:56:24;3.93;;;3.53;;
13743;SDS011;6943;52.368;9.966;2023-04-23T12:58:50;3.40;;;2.97;;
13743;SDS011;6943;52.368;9.966;2023-04-23T13:01:16;3.57;;;2.70;;
13743;SDS011;6943;52.368;9.966;2023-04-23T13:03:42;2.80;;;2.57;;
13743;SDS011;6943;52.368;9.966;2023-04-23T13:06:07;3.30;;;2.00;;
13743;SDS011;6943;52.368;9.966;2023-04-23T13:08:33;1.60;;;1.50;;
13743;SDS011;6943;52.368;9.966;2023-04-23T13:10:58;1.80;;;1.70;;
13743;SDS011;6943;52.368;9.966;2023-04-23T13:13:25;1.70;;;1.60;;
13743;SDS011;6943;52.368;9.966;2023-04-23T13:15:51;1.80;;;1.40;;
13743;SDS011;6943;52.368;9.966;2023-04-23T13:18:17;1.20;;;1.10;;
13743;SDS011;6943;52.368;9.966;2023-04-23T13:20:42;2.43;;;1.43;;
13743;SDS011;6943;52.368;9.966;2023-04-23T13:23:08;1.40;;;1.30;;
13743;SDS011;6943;52.368;9.966;2023-04-23T13:25:35;1.77;;;1.40;;
13743;SDS011;6943;52.368;9.966;2023-04-23T13:28:00;1.73;;;1.40;;
13743;SDS011;6943;52.368;9.966;2023-04-23T13:30:26;2.03;;;1.27;;
13743;SDS011;6943;52.368;9.966;2023-04-23T13:32:52;1.73;;;1.30;;
13743;SDS011;6943;52.368;9.966;2023-04-23T13:35:17;1.63;;;1.37;;
13743;SDS011;6943;52.368;9.966;2023-04-23T13:37:43;2.13;;;1.30;;
13743;SDS011;6943;52.368;9.966;2023-04-23T13:40:09;2.20;;;1.60;;
13743;SDS011;6943;52.368;9.966;2023-04-23T13:42:35;1.73;;;1.53;;
13743;SDS011;6943;52.368;9.966;2023-04-23T13:45:00;2.80;;;1.60;;
13743;SDS011;6943;52.368;9.966;2023-04-23T13:47:28;3.20;;;1.87;;
13743;SDS011;6943;52.368;9.966;2023-04-23T13:49:57;2.00;;;1.80;;
13743;SDS011;6943;52.368;9.966;2023-04-23T13:52:23;1.57;;;1.47;;
13743;SDS011;6943;52.368;9.966;2023-04-23T13:54:48;2.47;;;1.40;;
13743;SDS011;6943;52.368;9.966;2023-04-23T13:57:15;1.33;;;1.10;;
13743;SDS011;6943;52.368;9.966;2023-04-23T13:59:40;1.50;;;1.33;;
13743;SDS011;6943;52.368;9.966;2023-04-23T14:02:06;2.90;;;1.20;;
13743;SDS011;6943;52.368;9.966;2023-04-23T14:04:31;1.30;;;1.00;;
13743;SDS011;6943;52.368;9.966;2023-04-23T14:06:57;1.80;;;1.00;;
13743;SDS011;6943;52.368;9.966;2023-04-23T14:09:22;1.17;;;1.00;;
13743;SDS011;6943;52.368;9.966;2023-04-23T14:11:48;1.67;;;0.90;;
13743;SDS011;6943;52.368;9.966;2023-04-23T14:14:13;1.27;;;1.13;;
13743;SDS011;6943;52.368;9.966;2023-04-23T14:16:40;1.30;;;0.90;;
13743;SDS011;6943;52.368;9.966;2023-04-23T14:19:05;2.10;;;1.10;;
13743;SDS011;6943;52.368;9.966;2023-04-23T14:21:31;1.30;;;1.07;;
13743;SDS011;6943;52.368;9.966;2023-04-23T14:24:01;1.53;;;1.03;;
13743;SDS011;6943;52.368;9.966;2023-04-23T14:26:33;1.80;;;1.20;;
13743;SDS011;6943;52.368;9.966;2023-04-23T14:29:16;2.37;;;1.73;;
13743;SDS011;6943;52.368;9.966;2023-04-23T14:31:58;2.70;;;1.50;;
13743;SDS011;6943;52.368;9.966;2023-04-23T14:34:24;2.00;;;1.23;;
13743;SDS011;6943;52.368;9.966;2023-04-23T14:36:50;1.60;;;1.30;;
13743;SDS011;6943;52.368;9.966;2023-04-23T14:39:16;1.77;;;1.57;;
13743;SDS011;6943;52.368;9.966;2023-04-23T14:41:42;1.90;;;1.37;;
13743;SDS011;6943;52.368;9.966;2023-04-23T14:44:08;2.20;;;1.37;;
13743;SDS011;6943;52.368;9.966;2023-04-23T14:46:34;1.23;;;1.10;;
13743;SDS011;6943;52.368;9.966;2023-04-23T14:48:59;1.67;;;1.43;;
13743;SDS011;6943;52.368;9.966;2023-04-23T14:51:25;1.53;;;1.43;;
13743;SDS011;6943;52.368;9.966;2023-04-23T14:53:51;1.30;;;1.20;;
13743;SDS011;6943;52.368;9.966;2023-04-23T14:56:17;1.97;;;1.80;;
13743;SDS011;6943;52.368;9.966;2023-04-23T14:58:42;2.00;;;1.80;;
13743;SDS011;6943;52.368;9.966;2023-04-23T15:01:08;1.73;;;1.63;;
13743;SDS011;6943;52.368;9.966;2023-04-23T15:03:33;1.83;;;1.70;;